createdAt,value
2016-02-16T00:00:22.855Z,0
2016-02-16T00:01:22.858Z,0
2016-02-16T00:02:22.877Z,0
2016-02-16T00:03:22.864Z,0
2016-02-16T00:04:22.851Z,0
2016-02-16T00:05:22.853Z,0
2016-02-16T00:06:22.856Z,0
2016-02-16T00:07:22.874Z,0
2016-02-16T00:08:22.861Z,0
2016-02-16T00:09:22.880Z,0
2016-02-16T00:10:22.852Z,0
2016-02-16T00:11:22.854Z,0
2016-02-16T00:12:22.841Z,0
2016-02-16T00:13:22.859Z,0
2016-02-16T00:14:22.846Z,0
2016-02-16T00:15:22.880Z,0
2016-02-16T00:16:22.837Z,0
2016-02-16T00:17:22.870Z,0
2016-02-16T00:18:22.842Z,0
2016-02-16T00:19:22.859Z,0
2016-02-16T00:20:22.832Z,0
2016-02-16T00:21:22.834Z,0
2016-02-16T00:22:22.837Z,0
2016-02-16T00:23:22.856Z,0
2016-02-16T00:24:22.842Z,0
2016-02-16T00:25:22.845Z,0
2016-02-16T00:26:22.848Z,0
2016-02-16T00:27:22.897Z,0
2016-02-16T00:28:22.837Z,0
2016-02-16T00:29:22.856Z,0
2016-02-16T00:30:22.827Z,0
2016-02-16T00:31:22.845Z,0
2016-02-16T00:32:22.832Z,0
2016-02-16T00:33:22.836Z,0
2016-02-16T00:34:22.838Z,0
2016-02-16T00:35:22.841Z,0
2016-02-16T00:36:22.827Z,0
2016-02-16T00:37:22.830Z,0
2016-02-16T00:38:22.864Z,0
2016-02-16T00:39:22.820Z,0
2016-02-16T00:40:22.838Z,0
2016-02-16T00:41:22.904Z,0
2016-02-16T00:42:22.828Z,0
2016-02-16T00:43:22.863Z,0
2016-02-16T00:44:22.833Z,0
2016-02-16T00:45:22.818Z,0
2016-02-16T00:46:22.821Z,0
2016-02-16T00:47:22.823Z,0
2016-02-16T00:48:22.841Z,0
2016-02-16T00:49:22.829Z,0
2016-02-16T00:50:22.846Z,0
2016-02-16T00:51:22.818Z,0
2016-02-16T00:52:22.837Z,0
2016-02-16T00:53:22.886Z,0
2016-02-16T00:54:22.842Z,0
2016-02-16T00:55:22.814Z,0
2016-02-16T00:56:22.847Z,0
2016-02-16T00:57:22.820Z,0
2016-02-16T00:58:22.822Z,0
2016-02-16T00:59:22.839Z,0
2016-02-16T01:00:22.811Z,0
2016-02-16T01:01:22.814Z,0
2016-02-16T01:02:22.817Z,0
2016-02-16T01:03:22.804Z,0
2016-02-16T01:04:22.494Z,0
2016-02-16T01:05:22.841Z,0
2016-02-16T01:06:22.811Z,0
2016-02-16T01:07:22.814Z,0
2016-02-16T01:08:22.817Z,0
2016-02-16T01:09:22.820Z,0
2016-02-16T01:10:22.650Z,0
2016-02-16T01:11:22.840Z,0
2016-02-16T01:12:22.812Z,0
2016-02-16T01:13:22.815Z,0
2016-02-16T01:14:22.818Z,0
2016-02-16T01:15:22.805Z,0
2016-02-16T01:16:22.807Z,0
2016-02-16T01:17:22.794Z,0
2016-02-16T01:18:22.796Z,0
2016-02-16T01:19:22.784Z,0
2016-02-16T01:20:22.788Z,0
2016-02-16T01:21:22.790Z,0
2016-02-16T01:22:22.807Z,0
2016-02-16T01:23:22.810Z,0
2016-02-16T01:24:22.812Z,0
2016-02-16T01:25:22.785Z,0
2016-02-16T01:26:22.819Z,0
2016-02-16T01:27:22.790Z,0
2016-02-16T01:28:22.793Z,0
2016-02-16T01:29:22.811Z,0
2016-02-16T01:30:22.783Z,0
2016-02-16T01:31:22.786Z,0
2016-02-16T01:32:22.789Z,0
2016-02-16T01:33:22.806Z,0
2016-02-16T01:34:22.809Z,0
2016-02-16T01:35:22.780Z,0
2016-02-16T01:36:22.799Z,0
2016-02-16T01:37:22.785Z,0
2016-02-16T01:38:22.789Z,0
2016-02-16T01:39:22.775Z,0
2016-02-16T01:40:22.778Z,0
2016-02-16T01:41:22.780Z,0
2016-02-16T01:42:22.799Z,0
2016-02-16T01:43:22.786Z,0
2016-02-16T01:44:22.789Z,0
2016-02-16T01:45:22.777Z,0
2016-02-16T01:46:22.763Z,0
2016-02-16T01:47:22.781Z,0
2016-02-16T01:48:22.769Z,0
2016-02-16T01:49:22.771Z,0
2016-02-16T01:50:22.774Z,0
2016-02-16T01:51:22.777Z,0
2016-02-16T01:52:22.763Z,0
2016-02-16T01:53:22.782Z,0
2016-02-16T01:54:22.769Z,0
2016-02-16T01:55:22.787Z,0
2016-02-16T01:56:22.759Z,0
2016-02-16T01:57:22.762Z,0
2016-02-16T01:58:22.779Z,0
2016-02-16T01:59:22.767Z,0
2016-02-16T02:00:22.769Z,0
2016-02-16T02:01:22.756Z,0
2016-02-16T02:02:22.759Z,0
2016-02-16T02:03:22.793Z,0
2016-02-16T02:04:22.749Z,0
2016-02-16T02:05:22.753Z,0
2016-02-16T02:06:22.756Z,0
2016-02-16T02:07:22.774Z,0
2016-02-16T02:08:22.745Z,0
2016-02-16T02:09:22.764Z,0
2016-02-16T02:10:22.750Z,0
2016-02-16T02:11:22.754Z,0
2016-02-16T02:12:22.756Z,0
2016-02-16T02:13:22.743Z,0
2016-02-16T02:14:22.777Z,0
2016-02-16T02:15:22.748Z,0
2016-02-16T02:16:22.767Z,0
2016-02-16T02:17:22.738Z,0
2016-02-16T02:18:22.741Z,0
2016-02-16T02:19:22.744Z,0
2016-02-16T02:20:22.746Z,0
2016-02-16T02:21:22.749Z,0
2016-02-16T02:22:22.767Z,0
2016-02-16T02:23:22.769Z,0
2016-02-16T02:24:22.742Z,0
2016-02-16T02:25:22.760Z,0
2016-02-16T02:26:22.730Z,0
2016-02-16T02:27:22.749Z,0
2016-02-16T02:28:22.736Z,0
2016-02-16T02:29:22.739Z,0
2016-02-16T02:30:22.727Z,0
2016-02-16T02:31:22.744Z,0
2016-02-16T02:32:22.731Z,0
2016-02-16T02:33:22.734Z,0
2016-02-16T02:34:22.753Z,0
2016-02-16T02:35:22.740Z,0
2016-02-16T02:36:22.743Z,0
2016-02-16T02:37:22.729Z,0
2016-02-16T02:38:22.748Z,0
2016-02-16T02:39:22.750Z,0
2016-02-16T02:40:22.738Z,0
2016-02-16T02:41:22.725Z,0
2016-02-16T02:42:22.728Z,0
2016-02-16T02:43:22.745Z,0
2016-02-16T02:44:22.733Z,0
2016-02-16T02:45:22.750Z,0
2016-02-16T02:46:22.722Z,0
2016-02-16T02:47:22.742Z,0
2016-02-16T02:48:22.728Z,0
2016-02-16T02:49:22.746Z,0
2016-02-16T02:50:22.717Z,0
2016-02-16T02:51:22.735Z,0
2016-02-16T02:52:22.723Z,0
2016-02-16T02:53:22.726Z,0
2016-02-16T02:54:22.728Z,0
2016-02-16T02:55:22.730Z,0
2016-02-16T02:56:22.718Z,0
2016-02-16T02:57:22.721Z,0
2016-02-16T02:58:22.739Z,0
2016-02-16T02:59:22.711Z,0
2016-02-16T03:00:22.729Z,0
2016-02-16T03:01:22.716Z,0
2016-02-16T03:02:22.734Z,0
2016-02-16T03:03:22.705Z,0
2016-02-16T03:04:22.573Z,0
2016-02-16T03:05:22.717Z,0
2016-02-16T03:06:22.719Z,0
2016-02-16T03:07:22.722Z,0
2016-02-16T03:08:22.724Z,0
2016-02-16T03:09:22.697Z,0
2016-02-16T03:10:22.730Z,0
2016-02-16T03:11:22.702Z,0
2016-02-16T03:12:22.704Z,0
2016-02-16T03:13:22.707Z,0
2016-02-16T03:14:22.757Z,0
2016-02-16T03:15:22.697Z,0
2016-02-16T03:16:22.684Z,0
2016-02-16T03:17:22.702Z,0
2016-02-16T03:18:22.689Z,0
2016-02-16T03:19:22.707Z,0
2016-02-16T03:20:22.695Z,0
2016-02-16T03:21:22.713Z,0
2016-02-16T03:22:22.716Z,0
2016-02-16T03:23:22.687Z,0
2016-02-16T03:24:22.689Z,0
2016-02-16T03:25:22.692Z,0
2016-02-16T03:26:22.695Z,0
2016-02-16T03:27:22.698Z,0
2016-02-16T03:28:22.701Z,0
2016-02-16T03:29:22.688Z,0
2016-02-16T03:30:22.690Z,0
2016-02-16T03:31:22.693Z,0
2016-02-16T03:32:22.696Z,0
2016-02-16T03:33:22.714Z,0
2016-02-16T03:34:22.702Z,0
2016-02-16T03:35:22.704Z,0
2016-02-16T03:36:22.707Z,0
2016-02-16T03:37:22.709Z,0
2016-02-16T03:38:22.697Z,0
2016-02-16T03:39:22.715Z,0
2016-02-16T03:40:22.686Z,0
2016-02-16T03:41:22.688Z,0
2016-02-16T03:42:22.707Z,0
2016-02-16T03:43:22.678Z,0
2016-02-16T03:44:22.681Z,0
2016-02-16T03:45:22.668Z,0
2016-02-16T03:46:22.671Z,0
2016-02-16T03:47:22.673Z,0
2016-02-16T03:48:22.676Z,0
2016-02-16T03:49:22.678Z,0
2016-02-16T03:50:22.666Z,0
2016-02-16T03:51:22.669Z,0
2016-02-16T03:52:22.671Z,0
2016-02-16T03:53:22.673Z,0
2016-02-16T03:54:22.661Z,0
2016-02-16T03:55:22.679Z,0
2016-02-16T03:56:22.682Z,0
2016-02-16T03:57:22.670Z,0
2016-02-16T03:58:22.656Z,0
2016-02-16T03:59:22.658Z,0
2016-02-16T04:00:22.661Z,0
2016-02-16T04:01:22.680Z,0
2016-02-16T04:02:22.667Z,0
2016-02-16T04:03:22.670Z,0
2016-02-16T04:04:22.657Z,0
2016-02-16T04:05:22.660Z,0
2016-02-16T04:06:22.662Z,0
2016-02-16T04:07:22.680Z,0
2016-02-16T04:08:22.652Z,0
2016-02-16T04:09:22.654Z,0
2016-02-16T04:10:22.673Z,0
2016-02-16T04:11:22.691Z,0
2016-02-16T04:12:22.663Z,0
2016-02-16T04:13:22.666Z,0
2016-02-16T04:14:22.652Z,0
2016-02-16T04:15:22.654Z,0
2016-02-16T04:16:22.658Z,0
2016-02-16T04:17:22.660Z,0
2016-02-16T04:18:22.648Z,0
2016-02-16T04:19:22.635Z,0
2016-02-16T04:20:22.653Z,0
2016-02-16T04:21:22.671Z,0
2016-02-16T04:22:22.659Z,0
2016-02-16T04:23:22.646Z,0
2016-02-16T04:24:22.648Z,0
2016-02-16T04:25:22.650Z,0
2016-02-16T04:26:22.654Z,0
2016-02-16T04:27:22.640Z,0
2016-02-16T04:28:22.643Z,0
2016-02-16T04:29:22.646Z,0
2016-02-16T04:30:22.648Z,0
2016-02-16T04:31:22.633Z,0
2016-02-16T04:32:22.624Z,0
2016-02-16T04:33:22.613Z,0
2016-02-16T04:34:22.586Z,0
2016-02-16T04:35:22.576Z,0
2016-02-16T04:36:22.567Z,0
2016-02-16T04:37:22.581Z,0
2016-02-16T04:38:22.563Z,0
2016-02-16T04:39:22.560Z,0
2016-02-16T04:40:22.558Z,0
2016-02-16T04:41:22.542Z,0
2016-02-16T04:42:22.574Z,0
2016-02-16T04:43:22.544Z,0
2016-02-16T04:44:22.529Z,0
2016-02-16T04:45:22.545Z,0
2016-02-16T04:46:22.532Z,0
2016-02-16T04:47:22.533Z,0
2016-02-16T04:48:22.535Z,0
2016-02-16T04:49:22.521Z,0
2016-02-16T04:50:22.367Z,0
2016-02-16T04:51:22.525Z,0
2016-02-16T04:52:22.528Z,0
2016-02-16T04:53:22.516Z,0
2016-02-16T04:54:22.518Z,0
2016-02-16T04:55:22.520Z,0
2016-02-16T04:56:22.507Z,0
2016-02-16T04:57:22.526Z,0
2016-02-16T04:58:22.512Z,0
2016-02-16T04:59:22.515Z,0
2016-02-16T05:00:22.518Z,0
2016-02-16T05:01:22.505Z,0
2016-02-16T05:02:22.507Z,0
2016-02-16T05:03:22.510Z,0
2016-02-16T05:04:22.513Z,0
2016-02-16T05:05:22.516Z,0
2016-02-16T05:06:22.504Z,0
2016-02-16T05:07:22.506Z,0
2016-02-16T05:08:22.492Z,0
2016-02-16T05:09:22.496Z,0
2016-02-16T05:10:22.498Z,0
2016-02-16T05:11:22.501Z,0
2016-02-16T05:12:22.519Z,0
2016-02-16T05:13:22.491Z,0
2016-02-16T05:14:22.509Z,0
2016-02-16T05:15:22.481Z,0
2016-02-16T05:16:22.499Z,0
2016-02-16T05:17:22.502Z,0
2016-02-16T05:18:22.520Z,0
2016-02-16T05:19:22.507Z,0
2016-02-16T05:20:22.494Z,0
2016-02-16T05:21:22.512Z,0
2016-02-16T05:22:22.499Z,0
2016-02-16T05:23:22.502Z,0
2016-02-16T05:24:22.489Z,0
2016-02-16T05:25:22.492Z,0
2016-02-16T05:26:22.494Z,0
2016-02-16T05:27:22.513Z,0
2016-02-16T05:28:22.500Z,0
2016-02-16T05:29:22.487Z,0
2016-02-16T05:30:22.490Z,0
2016-02-16T05:31:22.477Z,0
2016-02-16T05:32:22.496Z,0
2016-02-16T05:33:22.482Z,0
2016-02-16T05:34:22.484Z,0
2016-02-16T05:35:22.487Z,0
2016-02-16T05:36:22.474Z,0
2016-02-16T05:37:22.493Z,0
2016-02-16T05:38:22.480Z,0
2016-02-16T05:39:22.482Z,0
2016-02-16T05:40:22.469Z,0
2016-02-16T05:41:22.473Z,0
2016-02-16T05:42:22.459Z,0
2016-02-16T05:43:22.461Z,0
2016-02-16T05:44:22.480Z,0
2016-02-16T05:45:22.452Z,0
2016-02-16T05:46:22.486Z,0
2016-02-16T05:47:22.473Z,0
2016-02-16T05:48:22.476Z,0
2016-02-16T05:49:22.478Z,0
2016-02-16T05:50:22.465Z,0
2016-02-16T05:51:22.452Z,0
2016-02-16T05:52:22.471Z,0
2016-02-16T05:53:22.474Z,0
2016-02-16T05:54:22.460Z,0
2016-02-16T05:55:22.463Z,0
2016-02-16T05:56:22.482Z,0
2016-02-16T05:57:22.468Z,0
2016-02-16T05:58:22.456Z,0
2016-02-16T05:59:22.458Z,0
2016-02-16T06:00:22.492Z,0
2016-02-16T06:01:22.449Z,0
2016-02-16T06:02:22.466Z,0
2016-02-16T06:03:22.454Z,0
2016-02-16T06:04:22.315Z,0
2016-02-16T06:05:22.460Z,0
2016-02-16T06:06:22.463Z,4
2016-02-16T06:07:22.449Z,4
2016-02-16T06:08:22.468Z,0
2016-02-16T06:09:22.299Z,4
2016-02-16T06:10:22.441Z,8
2016-02-16T06:11:22.444Z,4
2016-02-16T06:12:22.447Z,8
2016-02-16T06:13:22.449Z,8
2016-02-16T06:14:22.437Z,12
2016-02-16T06:15:22.455Z,12
2016-02-16T06:16:22.427Z,12
2016-02-16T06:17:22.445Z,16
2016-02-16T06:18:22.432Z,20
2016-02-16T06:19:22.435Z,20
2016-02-16T06:20:22.437Z,20
2016-02-16T06:21:22.456Z,20
2016-02-16T06:22:22.442Z,24
2016-02-16T06:23:22.430Z,24
2016-02-16T06:24:22.432Z,28
2016-02-16T06:25:22.435Z,28
2016-02-16T06:26:22.437Z,40
2016-02-16T06:27:22.440Z,44
2016-02-16T06:28:22.459Z,52
2016-02-16T06:29:22.430Z,56
2016-02-16T06:30:22.464Z,72
2016-02-16T06:31:22.420Z,84
2016-02-16T06:32:22.438Z,96
2016-02-16T06:33:22.426Z,104
2016-02-16T06:34:22.428Z,120
2016-02-16T06:35:22.416Z,132
2016-02-16T06:36:22.434Z,148
2016-02-16T06:37:22.453Z,156
2016-02-16T06:38:22.423Z,168
2016-02-16T06:39:22.442Z,180
2016-02-16T06:40:22.429Z,188
2016-02-16T06:41:22.432Z,196
2016-02-16T06:42:22.418Z,204
2016-02-16T06:43:22.437Z,208
2016-02-16T06:44:22.408Z,216
2016-02-16T06:45:22.426Z,236
2016-02-16T06:46:22.413Z,240
2016-02-16T06:47:22.432Z,248
2016-02-16T06:48:22.418Z,264
2016-02-16T06:49:22.438Z,284
2016-02-16T06:50:22.393Z,292
2016-02-16T06:51:22.427Z,312
2016-02-16T06:52:22.398Z,324
2016-02-16T06:53:22.401Z,336
2016-02-16T06:54:22.404Z,348
2016-02-16T06:55:22.407Z,356
2016-02-16T06:56:22.410Z,360
2016-02-16T06:57:22.396Z,356
2016-02-16T06:58:22.415Z,356
2016-02-16T06:59:22.401Z,384
2016-02-16T07:00:22.404Z,376
2016-02-16T07:01:22.407Z,400
2016-02-16T07:02:22.409Z,412
2016-02-16T07:03:22.397Z,416
2016-02-16T07:04:22.400Z,420
2016-02-16T07:05:22.402Z,432
2016-02-16T07:06:22.405Z,440
2016-02-16T07:07:22.392Z,448
2016-02-16T07:08:22.238Z,448
2016-02-16T07:09:22.397Z,448
2016-02-16T07:10:22.400Z,456
2016-02-16T07:11:22.388Z,440
2016-02-16T07:12:22.405Z,456
2016-02-16T07:13:22.377Z,504
2016-02-16T07:14:22.411Z,492
2016-02-16T07:15:22.382Z,484
2016-02-16T07:16:22.385Z,524
2016-02-16T07:17:22.482Z,560
2016-02-16T07:18:22.390Z,624
2016-02-16T07:19:22.377Z,616
2016-02-16T07:20:22.380Z,680
2016-02-16T07:21:22.382Z,720
2016-02-16T07:22:22.385Z,736
2016-02-16T07:23:22.372Z,752
2016-02-16T07:24:22.235Z,776
2016-02-16T07:25:22.378Z,780
2016-02-16T07:26:22.396Z,796
2016-02-16T07:27:22.368Z,828
2016-02-16T07:28:22.387Z,848
2016-02-16T07:29:22.357Z,856
2016-02-16T07:30:22.392Z,892
2016-02-16T07:31:22.363Z,936
2016-02-16T07:32:22.381Z,952
2016-02-16T07:33:22.368Z,960
2016-02-16T07:34:22.370Z,988
2016-02-16T07:35:22.358Z,1024
2016-02-16T07:36:22.376Z,1060
2016-02-16T07:37:22.363Z,1076
2016-02-16T07:38:22.366Z,1112
2016-02-16T07:39:22.384Z,1132
2016-02-16T07:40:22.372Z,1156
2016-02-16T07:41:22.389Z,1124
2016-02-16T07:42:22.361Z,1056
2016-02-16T07:43:22.363Z,1008
2016-02-16T07:44:22.367Z,972
2016-02-16T07:45:22.369Z,960
2016-02-16T07:46:22.372Z,1024
2016-02-16T07:47:22.359Z,1016
2016-02-16T07:48:22.393Z,952
2016-02-16T07:49:22.349Z,1012
2016-02-16T07:50:22.352Z,1072
2016-02-16T07:51:22.401Z,1132
2016-02-16T07:52:22.357Z,1328
2016-02-16T07:53:22.376Z,1348
2016-02-16T07:54:22.362Z,1348
2016-02-16T07:55:22.381Z,1372
2016-02-16T07:56:22.352Z,1408
2016-02-16T07:57:22.370Z,1384
2016-02-16T07:58:22.342Z,1396
2016-02-16T07:59:22.345Z,1360
2016-02-16T08:00:22.347Z,1372
2016-02-16T08:01:22.350Z,1332
2016-02-16T08:02:22.368Z,1324
2016-02-16T08:03:22.339Z,1320
2016-02-16T08:04:22.359Z,1344
2016-02-16T08:05:22.345Z,1372
2016-02-16T08:06:22.348Z,1396
2016-02-16T08:07:22.350Z,1560
2016-02-16T08:08:22.353Z,1436
2016-02-16T08:09:22.324Z,1588
2016-02-16T08:10:22.343Z,1688
2016-02-16T08:11:22.345Z,1512
2016-02-16T08:12:22.333Z,1644
2016-02-16T08:13:22.336Z,1644
2016-02-16T08:14:22.339Z,1780
2016-02-16T08:15:22.341Z,1776
2016-02-16T08:16:22.312Z,1928
2016-02-16T08:17:22.330Z,1892
2016-02-16T08:18:22.333Z,2032
2016-02-16T08:19:22.336Z,2228
2016-02-16T08:20:22.338Z,2356
2016-02-16T08:21:22.326Z,2384
2016-02-16T08:22:22.328Z,2616
2016-02-16T08:23:22.331Z,2820
2016-02-16T08:24:22.349Z,2884
2016-02-16T08:25:22.321Z,3176
2016-02-16T08:26:22.323Z,3632
2016-02-16T08:27:22.326Z,4192
2016-02-16T08:28:22.329Z,4320
2016-02-16T08:29:22.316Z,4228
2016-02-16T08:30:22.334Z,4152
2016-02-16T08:31:22.337Z,4008
2016-02-16T08:32:22.323Z,4040
2016-02-16T08:33:22.326Z,3928
2016-02-16T08:34:22.329Z,3908
2016-02-16T08:35:22.316Z,3920
2016-02-16T08:36:22.334Z,3816
2016-02-16T08:37:22.306Z,3644
2016-02-16T08:38:22.340Z,3472
2016-02-16T08:39:22.342Z,3432
2016-02-16T08:40:22.314Z,3632
2016-02-16T08:41:22.301Z,3396
2016-02-16T08:42:22.319Z,3508
2016-02-16T08:43:22.322Z,3424
2016-02-16T08:44:22.325Z,3372
2016-02-16T08:45:22.327Z,2940
2016-02-16T08:46:22.315Z,2672
2016-02-16T08:47:22.317Z,2716
2016-02-16T08:48:22.305Z,3180
2016-02-16T08:49:22.308Z,3388
2016-02-16T08:50:22.310Z,3576
2016-02-16T08:51:22.327Z,3788
2016-02-16T08:52:22.315Z,4148
2016-02-16T08:53:22.318Z,3564
2016-02-16T08:54:22.336Z,3596
2016-02-16T08:55:22.307Z,3528
2016-02-16T08:56:22.326Z,3088
2016-02-16T08:57:22.329Z,3088
2016-02-16T08:58:22.315Z,3004
2016-02-16T08:59:22.304Z,2864
2016-02-16T09:00:22.321Z,2788
2016-02-16T09:01:22.324Z,3312
2016-02-16T09:02:22.311Z,3568
2016-02-16T09:03:22.329Z,3032
2016-02-16T09:04:22.316Z,2996
2016-02-16T09:05:22.303Z,2868
2016-02-16T09:06:22.322Z,3068
2016-02-16T09:07:22.309Z,3028
2016-02-16T09:08:22.327Z,2812
2016-02-16T09:09:22.298Z,3092
2016-02-16T09:10:22.301Z,3068
2016-02-16T09:11:22.304Z,2460
2016-02-16T09:12:22.291Z,2752
2016-02-16T09:13:22.309Z,2528
2016-02-16T09:14:22.297Z,2708
2016-02-16T09:15:22.314Z,2968
2016-02-16T09:16:22.286Z,3164
2016-02-16T09:17:22.288Z,3356
2016-02-16T09:18:22.307Z,3596
2016-02-16T09:19:22.325Z,3340
2016-02-16T09:20:22.296Z,3256
2016-02-16T09:21:22.300Z,3308
2016-02-16T09:22:22.302Z,3340
2016-02-16T09:23:22.305Z,3132
2016-02-16T09:24:22.324Z,3176
2016-02-16T09:25:22.294Z,2880
2016-02-16T09:26:22.297Z,3128
2016-02-16T09:27:22.332Z,3328
2016-02-16T09:28:22.568Z,3244
2016-02-16T09:29:22.305Z,2972
2016-02-16T09:30:22.308Z,2704
2016-02-16T09:31:22.295Z,3268
2016-02-16T09:32:22.298Z,3672
2016-02-16T09:33:22.301Z,4032
2016-02-16T09:34:22.304Z,3332
2016-02-16T09:35:22.306Z,3044
2016-02-16T09:36:22.293Z,3936
2016-02-16T09:37:22.296Z,4704
2016-02-16T09:38:22.315Z,4484
2016-02-16T09:39:22.301Z,4772
2016-02-16T09:40:22.304Z,5048
2016-02-16T09:41:22.306Z,4952
2016-02-16T09:42:22.278Z,4536
2016-02-16T09:43:22.312Z,4144
2016-02-16T09:44:22.300Z,3708
2016-02-16T09:45:22.286Z,4308
2016-02-16T09:46:22.305Z,4356
2016-02-16T09:47:22.275Z,3980
2016-02-16T09:48:22.294Z,4568
2016-02-16T09:49:22.296Z,4068
2016-02-16T09:50:22.284Z,3528
2016-02-16T09:51:22.287Z,4228
2016-02-16T09:52:22.289Z,3932
2016-02-16T09:53:22.308Z,3456
2016-02-16T09:54:22.310Z,3520
2016-02-16T09:55:22.282Z,3396
2016-02-16T09:56:22.346Z,3180
2016-02-16T09:57:22.287Z,2952
2016-02-16T09:58:22.337Z,2796
2016-02-16T09:59:22.277Z,2740
2016-02-16T10:00:22.280Z,2684
2016-02-16T10:01:22.282Z,2796
2016-02-16T10:02:22.301Z,2912
2016-02-16T10:03:22.287Z,3060
2016-02-16T10:04:22.290Z,3176
2016-02-16T10:05:22.324Z,3092
2016-02-16T10:06:22.312Z,3320
2016-02-16T10:07:22.298Z,3288
2016-02-16T10:08:22.301Z,3176
2016-02-16T10:09:22.287Z,3124
2016-02-16T10:10:22.665Z,3076
2016-02-16T10:11:22.309Z,2956
2016-02-16T10:12:22.264Z,2932
2016-02-16T10:13:22.284Z,3140
2016-02-16T10:14:22.302Z,3192
2016-02-16T10:15:22.289Z,3028
2016-02-16T10:16:22.292Z,3064
2016-02-16T10:17:22.278Z,3244
2016-02-16T10:18:22.297Z,3100
2016-02-16T10:19:22.284Z,3128
2016-02-16T10:20:22.287Z,3052
2016-02-16T10:21:22.289Z,3072
2016-02-16T10:22:22.308Z,3040
2016-02-16T10:23:22.294Z,3132
2016-02-16T10:24:22.297Z,3020
2016-02-16T10:25:22.299Z,2948
2016-02-16T10:26:22.302Z,2916
2016-02-16T10:27:22.274Z,3052
2016-02-16T10:28:22.308Z,3332
2016-02-16T10:29:22.311Z,3268
2016-02-16T10:30:22.282Z,3144
2016-02-16T10:31:22.285Z,3156
2016-02-16T10:32:22.287Z,3284
2016-02-16T10:33:22.306Z,3192
2016-02-16T10:34:22.308Z,3068
2016-02-16T10:35:22.280Z,3168
2016-02-16T10:36:22.283Z,2972
2016-02-16T10:37:22.285Z,3000
2016-02-16T10:38:22.287Z,3208
2016-02-16T10:39:22.275Z,3128
2016-02-16T10:40:22.309Z,3028
2016-02-16T10:41:22.295Z,3312
2016-02-16T10:42:22.298Z,3248
2016-02-16T10:43:22.286Z,3404
2016-02-16T10:44:22.273Z,3196
2016-02-16T10:45:22.292Z,2968
2016-02-16T10:46:22.278Z,3228
2016-02-16T10:47:22.280Z,2996
2016-02-16T10:48:22.284Z,3168
2016-02-16T10:49:22.287Z,2820
2016-02-16T10:50:22.289Z,3148
2016-02-16T10:51:22.292Z,3380
2016-02-16T10:52:22.278Z,3348
2016-02-16T10:53:22.594Z,3308
2016-02-16T10:54:22.283Z,4240
2016-02-16T10:55:22.286Z,3808
2016-02-16T10:56:22.290Z,3136
2016-02-16T10:57:22.292Z,3392
2016-02-16T10:58:22.295Z,3596
2016-02-16T10:59:22.297Z,3664
2016-02-16T11:00:22.316Z,3240
2016-02-16T11:01:22.287Z,3528
2016-02-16T11:02:22.338Z,4024
2016-02-16T11:03:22.293Z,4568
2016-02-16T11:04:22.280Z,4852
2016-02-16T11:05:22.313Z,4540
2016-02-16T11:06:22.285Z,3952
2016-02-16T11:07:22.303Z,3796
2016-02-16T11:08:22.307Z,3884
2016-02-16T11:09:22.278Z,4136
2016-02-16T11:10:22.312Z,4536
2016-02-16T11:11:22.284Z,4116
2016-02-16T11:12:22.286Z,4296
2016-02-16T11:13:22.320Z,4196
2016-02-16T11:14:22.275Z,3844
2016-02-16T11:15:22.309Z,3872
2016-02-16T11:16:22.280Z,4228
2016-02-16T11:17:22.300Z,4428
2016-02-16T11:18:22.287Z,4448
2016-02-16T11:19:22.289Z,4332
2016-02-16T11:20:22.292Z,4280
2016-02-16T11:21:22.294Z,4444
2016-02-16T11:22:22.281Z,4448
2016-02-16T11:23:22.284Z,4044
2016-02-16T11:24:22.287Z,3804
2016-02-16T11:25:22.289Z,3888
2016-02-16T11:26:22.292Z,3960
2016-02-16T11:27:22.295Z,4156
2016-02-16T11:28:25.052Z,4332
2016-02-16T11:29:22.290Z,4312
2016-02-16T11:30:22.292Z,3988
2016-02-16T11:31:22.295Z,3540
2016-02-16T11:32:22.282Z,3640
2016-02-16T11:33:22.284Z,3676
2016-02-16T11:34:22.334Z,3420
2016-02-16T11:35:22.290Z,3356
2016-02-16T11:36:22.292Z,3184
2016-02-16T11:37:22.295Z,3276
2016-02-16T11:38:22.298Z,3272
2016-02-16T11:39:22.285Z,3292
2016-02-16T11:40:22.304Z,3528
2016-02-16T11:41:22.275Z,3424
2016-02-16T11:42:22.278Z,3224
2016-02-16T11:43:22.295Z,3256
2016-02-16T11:44:22.283Z,2984
2016-02-16T11:45:22.301Z,2824
2016-02-16T11:46:22.289Z,2968
2016-02-16T11:47:22.291Z,2876
2016-02-16T11:48:22.294Z,2724
2016-02-16T11:49:22.280Z,2740
2016-02-16T11:50:22.283Z,2776
2016-02-16T11:51:22.286Z,2824
2016-02-16T11:52:22.289Z,2996
2016-02-16T11:53:22.291Z,2768
2016-02-16T11:54:22.278Z,2764
2016-02-16T11:55:22.328Z,2776
2016-02-16T11:56:22.377Z,2776
2016-02-16T11:57:22.302Z,2872
2016-02-16T11:58:22.289Z,2888
2016-02-16T11:59:22.292Z,2728
2016-02-16T12:00:22.294Z,2732
2016-02-16T12:01:22.282Z,2772
2016-02-16T12:02:22.284Z,2696
2016-02-16T12:03:22.272Z,2628
2016-02-16T12:04:22.321Z,2600
2016-02-16T12:05:22.288Z,2640
2016-02-16T12:06:22.004Z,2876
2016-02-16T12:07:22.288Z,3000
2016-02-16T12:08:22.306Z,3136
2016-02-16T12:09:22.293Z,3256
2016-02-16T12:10:22.280Z,3172
2016-02-16T12:11:22.283Z,3380
2016-02-16T12:12:22.301Z,3016
2016-02-16T12:13:22.288Z,2988
2016-02-16T12:14:22.291Z,2980
2016-02-16T12:15:22.279Z,3144
2016-02-16T12:16:22.296Z,3196
2016-02-16T12:17:22.299Z,3008
2016-02-16T12:18:22.287Z,2920
2016-02-16T12:19:22.289Z,2780
2016-02-16T12:20:22.292Z,2664
2016-02-16T12:21:22.278Z,2696
2016-02-16T12:22:22.359Z,2588
2016-02-16T12:23:22.285Z,2740
2016-02-16T12:24:22.318Z,2900
2016-02-16T12:25:22.275Z,2936
2016-02-16T12:26:22.292Z,2780
2016-02-16T12:27:22.122Z,2772
2016-02-16T12:28:22.267Z,2788
2016-02-16T12:29:22.285Z,2636
2016-02-16T12:30:22.272Z,2536
2016-02-16T12:31:22.353Z,2424
2016-02-16T12:32:22.339Z,2528
2016-02-16T12:33:22.296Z,2628
2016-02-16T12:34:22.283Z,2676
2016-02-16T12:35:22.301Z,2680
2016-02-16T12:36:22.273Z,2436
2016-02-16T12:37:22.322Z,2416
2016-02-16T12:38:22.309Z,2404
2016-02-16T12:39:22.296Z,2332
2016-02-16T12:40:22.298Z,2204
2016-02-16T12:41:22.270Z,2128
2016-02-16T12:42:22.274Z,2088
2016-02-16T12:43:22.291Z,2076
2016-02-16T12:44:22.278Z,2040
2016-02-16T12:45:22.297Z,1984
2016-02-16T12:46:22.299Z,2112
2016-02-16T12:47:22.286Z,2112
2016-02-16T12:48:22.304Z,2068
2016-02-16T12:49:22.292Z,2140
2016-02-16T12:50:22.278Z,2008
2016-02-16T12:51:22.313Z,1952
2016-02-16T12:52:22.268Z,2028
2016-02-16T12:53:22.318Z,1964
2016-02-16T12:54:22.117Z,1832
2016-02-16T12:55:22.308Z,1828
2016-02-16T12:56:22.279Z,1836
2016-02-16T12:57:22.297Z,1916
2016-02-16T12:58:22.285Z,2104
2016-02-16T12:59:22.303Z,2148
2016-02-16T13:00:22.274Z,1956
2016-02-16T13:01:22.292Z,2004
2016-02-16T13:02:22.264Z,1996
2016-02-16T13:03:22.297Z,2060
2016-02-16T13:04:22.270Z,2008
2016-02-16T13:05:22.303Z,2020
2016-02-16T13:06:22.275Z,1984
2016-02-16T13:07:22.277Z,1944
2016-02-16T13:08:22.296Z,1988
2016-02-16T13:09:22.329Z,1888
2016-02-16T13:10:22.270Z,1808
2016-02-16T13:11:22.273Z,1892
2016-02-16T13:12:22.259Z,1892
2016-02-16T13:13:22.263Z,1856
2016-02-16T13:14:22.265Z,1756
2016-02-16T13:15:22.284Z,1716
2016-02-16T13:16:22.270Z,1764
2016-02-16T13:17:22.257Z,1804
2016-02-16T13:18:22.260Z,1756
2016-02-16T13:19:22.262Z,1824
2016-02-16T13:20:22.265Z,1752
2016-02-16T13:21:22.268Z,1700
2016-02-16T13:22:22.287Z,1748
2016-02-16T13:23:22.273Z,1884
2016-02-16T13:24:22.276Z,1888
2016-02-16T13:25:22.278Z,2028
2016-02-16T13:26:22.282Z,2168
2016-02-16T13:27:22.300Z,2416
2016-02-16T13:28:22.178Z,2240
2016-02-16T13:29:22.275Z,2372
2016-02-16T13:30:22.262Z,2584
2016-02-16T13:31:22.295Z,2668
2016-02-16T13:32:22.267Z,2624
2016-02-16T13:33:22.300Z,2464
2016-02-16T13:34:22.273Z,2464
2016-02-16T13:35:22.259Z,2272
2016-02-16T13:36:22.261Z,2232
2016-02-16T13:37:22.256Z,2556
2016-02-16T13:38:22.290Z,2304
2016-02-16T13:39:22.075Z,2312
2016-02-16T13:40:22.235Z,2504
2016-02-16T13:41:22.191Z,2592
2016-02-16T13:42:22.169Z,2608
2016-02-16T13:43:22.166Z,2692
2016-02-16T13:44:22.163Z,2856
2016-02-16T13:45:22.161Z,2956
2016-02-16T13:46:22.158Z,2540
2016-02-16T13:47:22.173Z,2484
2016-02-16T13:48:22.158Z,2460
2016-02-16T13:49:22.175Z,2248
2016-02-16T13:50:22.160Z,2416
2016-02-16T13:51:22.160Z,2508
2016-02-16T13:52:22.147Z,2216
2016-02-16T13:53:22.133Z,2252
2016-02-16T13:54:22.151Z,2344
2016-02-16T13:55:22.153Z,2248
2016-02-16T13:56:22.138Z,2368
2016-02-16T13:57:22.141Z,2292
2016-02-16T13:58:22.143Z,2336
2016-02-16T13:59:22.161Z,2440